Time;durP1;ratioP1;P1;durP2;ratioP2;P2;SDS_P1;SDS_P2;PMS_P1;PMS_P2;Temp;Humidity;BMP_temperature;BMP_pressure;BME280_temperature;BME280_humidity;BME280_pressure;Samples;Min_cycle;Max_cycle;Signal;HPM_P1;HPM_P2
2021/03/31 00:02:24;;;;;;;16.53;12.10;;;9.40;99.90;;;;;;5010174;28;20974;-79
2021/03/31 00:04:52;;;;;;;16.33;12.87;;;9.40;99.90;;;;;;5010403;28;20241;-78
2021/03/31 00:07:20;;;;;;;18.80;12.60;;;9.40;99.90;;;;;;5010395;28;20243;-78
2021/03/31 00:09:48;;;;;;;16.33;12.33;;;9.30;99.90;;;;;;5009933;28;20356;-78
2021/03/31 00:12:15;;;;;;;16.77;11.63;;;9.30;99.90;;;;;;5010448;28;20295;-78
2021/03/31 00:14:43;;;;;;;18.07;11.97;;;9.30;99.90;;;;;;5010603;28;20246;-78
2021/03/31 00:17:10;;;;;;;14.30;10.70;;;9.30;99.90;;;;;;5025227;28;20250;-78
2021/03/31 00:19:37;;;;;;;12.07;8.63;;;9.20;99.90;;;;;;5008034;28;20265;-78
2021/03/31 00:22:05;;;;;;;17.00;10.93;;;9.40;99.90;;;;;;5007483;28;20242;-78
2021/03/31 00:24:33;;;;;;;15.10;10.60;;;9.30;99.90;;;;;;5005244;28;20231;-78
2021/03/31 00:27:01;;;;;;;11.87;8.87;;;9.20;99.90;;;;;;5009584;28;20242;-77
2021/03/31 00:29:28;;;;;;;13.43;9.77;;;9.30;99.90;;;;;;5014839;28;20236;-78
2021/03/31 00:31:55;;;;;;;15.77;10.43;;;9.30;99.90;;;;;;5029056;28;20244;-78
2021/03/31 00:34:23;;;;;;;13.20;8.43;;;9.20;99.90;;;;;;5029525;28;20305;-78
2021/03/31 00:36:50;;;;;;;13.30;8.80;;;9.20;99.90;;;;;;5033278;28;20310;-77
2021/03/31 00:39:21;;;;;;;15.07;10.70;;;9.10;99.90;;;;;;5033831;28;20772;-79
2021/03/31 00:41:49;;;;;;;13.70;9.90;;;9.10;99.90;;;;;;5027444;28;20265;-78
2021/03/31 00:44:19;;;;;;;15.70;10.60;;;9.00;99.90;;;;;;5014021;28;20243;-78
2021/03/31 00:46:46;;;;;;;15.10;10.37;;;9.00;99.90;;;;;;5013986;28;20234;-78
2021/03/31 00:49:14;;;;;;;13.97;9.97;;;8.90;99.90;;;;;;5014443;28;20237;-79
2021/03/31 00:51:42;;;;;;;16.63;10.70;;;8.80;99.90;;;;;;5012851;28;20242;-78
2021/03/31 00:54:10;;;;;;;14.30;10.33;;;8.80;99.90;;;;;;5028216;28;20239;-78
2021/03/31 00:56:37;;;;;;;15.17;9.67;;;8.80;99.90;;;;;;5013718;28;20279;-78
2021/03/31 00:59:05;;;;;;;15.10;9.60;;;8.70;99.90;;;;;;5013372;28;20645;-77
2021/03/31 01:01:32;;;;;;;16.63;10.47;;;8.70;99.90;;;;;;5013598;28;20237;-78
2021/03/31 01:04:00;;;;;;;12.33;8.93;;;8.60;99.90;;;;;;5013274;28;20237;-78
2021/03/31 01:06:27;;;;;;;13.57;8.80;;;8.70;99.90;;;;;;5013774;28;20249;-78
2021/03/31 01:08:55;;;;;;;15.97;10.43;;;8.80;99.90;;;;;;5013559;28;20295;-77
2021/03/31 01:11:31;;;;;;;15.20;10.27;;;8.70;99.90;;;;;;5013721;28;20246;-77
2021/03/31 01:14:09;;;;;;;15.47;10.67;;;8.60;99.90;;;;;;5011694;28;20306;-79
2021/03/31 01:16:43;;;;;;;13.00;8.60;;;8.50;99.90;;;;;;5012537;28;20264;-78
2021/03/31 01:19:58;;;;;;;13.97;9.37;;;8.60;99.90;;;;;;5011837;28;20292;-78
2021/03/31 01:23:24;;;;;;;14.43;11.27;;;8.90;99.90;;;;;;4977758;28;20248;-78
2021/03/31 01:25:58;;;;;;;15.20;9.33;;;8.70;99.90;;;;;;4994881;28;20234;-77
2021/03/31 01:28:46;;;;;;;15.13;10.03;;;8.60;99.90;;;;;;5029106;28;20248;-78
2021/03/31 01:31:37;;;;;;;18.17;10.83;;;8.70;99.90;;;;;;5014501;28;20569;-77
2021/03/31 01:34:37;;;;;;;13.63;10.20;;;8.60;99.90;;;;;;5012883;28;20241;-78
2021/03/31 01:37:12;;;;;;;16.30;12.00;;;8.70;99.90;;;;;;5013216;28;20351;-77
2021/03/31 01:39:42;;;;;;;19.23;13.07;;;8.50;99.90;;;;;;5021513;28;20236;-77
2021/03/31 01:42:13;;;;;;;19.73;13.37;;;8.40;99.90;;;;;;5048083;28;20263;-78
2021/03/31 01:44:43;;;;;;;21.33;13.10;;;8.30;99.90;;;;;;5032546;28;20231;-79
2021/03/31 01:47:13;;;;;;;17.33;12.43;;;8.30;99.90;;;;;;5011004;28;20256;-78
2021/03/31 01:49:42;;;;;;;17.57;13.43;;;8.30;99.90;;;;;;5032388;28;20237;-78
2021/03/31 01:52:12;;;;;;;19.37;13.07;;;8.40;99.90;;;;;;5032790;28;20257;-79
2021/03/31 01:54:45;;;;;;;18.90;13.07;;;8.40;99.90;;;;;;5032152;28;20623;-78
2021/03/31 01:57:14;;;;;;;23.20;13.50;;;8.30;99.90;;;;;;5032606;28;20330;-78
2021/03/31 01:59:44;;;;;;;18.23;12.13;;;8.20;99.90;;;;;;5008476;28;20287;-77
2021/03/31 02:02:12;;;;;;;18.93;11.77;;;8.20;99.90;;;;;;4990073;28;20752;-77
2021/03/31 02:04:42;;;;;;;18.80;12.37;;;8.30;99.90;;;;;;4992647;28;20319;-78
2021/03/31 02:07:11;;;;;;;18.90;13.50;;;8.30;99.90;;;;;;4992542;28;20230;-78
2021/03/31 02:09:47;;;;;;;20.10;13.33;;;8.30;99.90;;;;;;4992821;28;20234;-78
2021/03/31 02:12:19;;;;;;;20.07;12.83;;;8.20;99.90;;;;;;4991286;28;20334;-77
2021/03/31 02:14:49;;;;;;;19.80;12.20;;;8.20;99.90;;;;;;4994423;28;20299;-77
2021/03/31 02:17:22;;;;;;;19.07;13.20;;;8.30;99.90;;;;;;4990257;28;20254;-78
2021/03/31 02:19:51;;;;;;;19.53;13.73;;;8.30;99.90;;;;;;4990747;28;20246;-78
2021/03/31 02:22:21;;;;;;;14.53;11.37;;;8.10;99.90;;;;;;4984181;28;20245;-79
2021/03/31 02:24:51;;;;;;;15.83;11.33;;;8.00;99.90;;;;;;5014787;28;20676;-78
2021/03/31 02:27:19;;;;;;;18.40;12.30;;;8.10;99.90;;;;;;5031691;28;20237;-77
2021/03/31 02:29:48;;;;;;;15.73;11.53;;;8.00;99.90;;;;;;4996415;28;20625;-77
2021/03/31 02:32:20;;;;;;;14.13;11.27;;;7.80;99.90;;;;;;4997809;28;20282;-77
2021/03/31 02:34:51;;;;;;;12.70;10.30;;;7.60;99.90;;;;;;5009708;28;20246;-77
2021/03/31 02:37:20;;;;;;;14.50;9.97;;;7.50;99.90;;;;;;5010332;28;20244;-77
2021/03/31 02:39:51;;;;;;;14.13;9.83;;;7.50;99.90;;;;;;5010287;28;20241;-78
2021/03/31 02:42:21;;;;;;;14.53;9.77;;;7.40;99.90;;;;;;5011139;28;20249;-77
2021/03/31 02:44:53;;;;;;;15.27;11.13;;;7.50;99.90;;;;;;5010296;28;20232;-78
2021/03/31 02:47:26;;;;;;;15.50;11.00;;;7.50;99.90;;;;;;5010189;28;20233;-77
2021/03/31 02:49:57;;;;;;;18.70;12.03;;;7.50;99.90;;;;;;5010428;28;20245;-77
2021/03/31 02:52:26;;;;;;;16.80;11.67;;;7.60;99.90;;;;;;5011000;28;20265;-78
2021/03/31 02:54:55;;;;;;;23.33;12.97;;;7.60;99.90;;;;;;5011213;28;20303;-78
2021/03/31 02:57:24;;;;;;;18.70;12.40;;;7.50;99.90;;;;;;5012088;28;20241;-77
2021/03/31 02:59:51;;;;;;;19.37;13.43;;;7.40;99.90;;;;;;5011277;28;20241;-77
2021/03/31 03:02:20;;;;;;;19.57;13.30;;;7.40;99.90;;;;;;5011080;28;20241;-77
2021/03/31 03:04:48;;;;;;;20.70;13.63;;;7.40;99.90;;;;;;5009697;28;20245;-77
2021/03/31 03:07:17;;;;;;;22.33;14.33;;;7.30;99.90;;;;;;5011850;28;20274;-77
2021/03/31 03:09:46;;;;;;;18.13;12.67;;;7.30;99.90;;;;;;5010500;28;20245;-77
2021/03/31 03:12:15;;;;;;;20.13;14.37;;;7.40;99.90;;;;;;5011962;28;20249;-78
2021/03/31 03:14:48;;;;;;;19.30;13.70;;;7.30;99.90;;;;;;5012343;28;20303;-78
2021/03/31 03:17:16;;;;;;;20.27;13.87;;;7.30;99.90;;;;;;5009121;28;20261;-77
2021/03/31 03:19:44;;;;;;;19.50;13.63;;;7.20;99.90;;;;;;5011563;28;20245;-77
2021/03/31 03:22:13;;;;;;;24.93;14.03;;;7.20;99.90;;;;;;5015850;28;20244;-77
2021/03/31 03:24:45;;;;;;;20.53;13.80;;;7.20;99.90;;;;;;5018695;28;20236;-77
2021/03/31 03:27:15;;;;;;;18.33;13.40;;;7.20;99.90;;;;;;5011560;28;20252;-77
2021/03/31 03:29:44;;;;;;;21.03;14.20;;;7.10;99.90;;;;;;5011686;28;20229;-77
2021/03/31 03:32:12;;;;;;;22.83;14.83;;;7.10;99.90;;;;;;5011407;28;20260;-77
2021/03/31 03:34:42;;;;;;;21.33;14.60;;;7.10;99.90;;;;;;5017743;28;20240;-78
2021/03/31 03:37:09;;;;;;;20.37;14.47;;;7.10;99.90;;;;;;5030499;28;20241;-78
2021/03/31 03:39:38;;;;;;;18.70;14.40;;;7.10;99.90;;;;;;5011030;28;20241;-78
2021/03/31 03:42:09;;;;;;;19.73;14.20;;;7.00;99.90;;;;;;5011036;28;20229;-78
2021/03/31 03:44:36;;;;;;;18.07;12.70;;;7.10;99.90;;;;;;5025775;28;20237;-77
2021/03/31 03:47:06;;;;;;;19.97;13.33;;;7.20;99.90;;;;;;5011280;28;20229;-78
2021/03/31 03:49:37;;;;;;;20.37;14.27;;;7.30;99.90;;;;;;5011163;28;20660;-77
2021/03/31 03:52:07;;;;;;;20.93;14.10;;;7.20;99.90;;;;;;5010736;28;20240;-79
2021/03/31 03:54:35;;;;;;;22.53;15.03;;;7.10;99.90;;;;;;5010918;28;20240;-78
2021/03/31 03:57:07;;;;;;;18.87;13.87;;;7.00;99.90;;;;;;5011282;28;20243;-77
2021/03/31 03:59:35;;;;;;;24.93;14.90;;;7.00;99.90;;;;;;5010873;28;25460;-78
2021/03/31 04:02:03;;;;;;;17.17;12.83;;;7.00;99.90;;;;;;5009081;28;20689;-77
2021/03/31 04:04:31;;;;;;;20.67;14.53;;;7.10;99.90;;;;;;5006003;28;20240;-77
2021/03/31 04:06:59;;;;;;;23.20;15.03;;;7.10;99.90;;;;;;5002941;28;20232;-79
2021/03/31 04:09:26;;;;;;;20.23;14.10;;;6.90;99.90;;;;;;5004237;28;20244;-77
2021/03/31 04:11:55;;;;;;;17.43;13.73;;;6.80;99.90;;;;;;5008615;28;20677;-78
2021/03/31 04:14:24;;;;;;;18.30;13.77;;;6.90;99.90;;;;;;5005201;28;20796;-77
2021/03/31 04:16:54;;;;;;;20.83;13.60;;;6.80;99.90;;;;;;5007139;28;20279;-77
2021/03/31 04:19:24;;;;;;;17.83;11.97;;;6.70;99.90;;;;;;5009996;28;20267;-77
2021/03/31 04:21:51;;;;;;;17.53;12.23;;;6.60;99.90;;;;;;5011135;28;20253;-77
2021/03/31 04:24:19;;;;;;;20.37;12.83;;;6.60;99.90;;;;;;5011060;28;20676;-77
2021/03/31 04:26:47;;;;;;;20.03;12.67;;;6.50;99.90;;;;;;5011085;28;20233;-78
2021/03/31 04:29:16;;;;;;;18.63;12.40;;;6.50;99.90;;;;;;5010616;28;20299;-77
2021/03/31 04:31:45;;;;;;;17.07;12.30;;;6.50;99.90;;;;;;5012894;28;20783;-77
2021/03/31 04:34:14;;;;;;;19.43;13.47;;;6.50;99.90;;;;;;5023680;28;20271;-77
2021/03/31 04:36:43;;;;;;;19.13;13.73;;;6.50;99.90;;;;;;5011263;28;20259;-77
2021/03/31 04:39:10;;;;;;;21.77;13.80;;;6.40;99.90;;;;;;5010770;28;20245;-77
2021/03/31 04:41:38;;;;;;;20.10;14.57;;;6.70;99.90;;;;;;5007945;28;20232;-78
2021/03/31 04:44:07;;;;;;;22.33;14.70;;;6.70;99.90;;;;;;5016716;28;20241;-78
2021/03/31 04:46:34;;;;;;;19.87;14.53;;;6.70;99.90;;;;;;5009815;28;20237;-80
2021/03/31 04:49:04;;;;;;;22.03;14.60;;;6.70;99.90;;;;;;5008412;28;20243;-77
2021/03/31 04:51:31;;;;;;;20.33;15.40;;;6.70;99.90;;;;;;5002731;28;20237;-77
2021/03/31 04:53:59;;;;;;;21.37;14.83;;;6.60;99.90;;;;;;5010175;28;20328;-78
2021/03/31 04:56:27;;;;;;;21.23;15.07;;;6.50;99.90;;;;;;5010108;28;20260;-77
2021/03/31 04:58:54;;;;;;;22.13;15.67;;;6.40;99.90;;;;;;5008541;28;20237;-79
2021/03/31 05:01:21;;;;;;;22.13;15.43;;;6.40;99.90;;;;;;5006572;28;20241;-77
2021/03/31 05:03:49;;;;;;;20.50;15.90;;;6.70;99.90;;;;;;5009782;28;20649;-78
2021/03/31 05:06:17;;;;;;;19.80;14.20;;;6.70;99.90;;;;;;5009395;28;20241;-77
2021/03/31 05:08:45;;;;;;;17.43;13.20;;;6.40;99.90;;;;;;5009469;28;20255;-78
2021/03/31 05:11:12;;;;;;;16.33;12.63;;;6.30;99.90;;;;;;5008703;28;20320;-76
2021/03/31 05:13:40;;;;;;;19.90;13.37;;;6.30;99.90;;;;;;5010389;28;20319;-77
2021/03/31 05:16:08;;;;;;;22.07;12.43;;;6.40;99.90;;;;;;5010572;28;20241;-76
2021/03/31 05:18:35;;;;;;;17.73;13.07;;;6.60;99.90;;;;;;5010735;28;20726;-78
2021/03/31 05:21:03;;;;;;;19.47;13.33;;;6.70;99.90;;;;;;5008392;28;20233;-78
2021/03/31 05:23:32;;;;;;;22.17;14.00;;;6.60;99.90;;;;;;5010161;28;20584;-77
2021/03/31 05:25:59;;;;;;;19.77;13.33;;;6.60;99.90;;;;;;5000328;28;20238;-78
2021/03/31 05:28:27;;;;;;;18.97;13.33;;;6.50;99.90;;;;;;4994768;28;20321;-77
2021/03/31 05:30:54;;;;;;;19.23;13.67;;;6.70;99.90;;;;;;5024233;28;20233;-77
2021/03/31 05:33:22;;;;;;;22.77;15.03;;;6.80;99.90;;;;;;5019377;28;20241;-77
2021/03/31 05:35:49;;;;;;;18.10;13.33;;;6.80;99.90;;;;;;5013963;28;20236;-78
2021/03/31 05:38:17;;;;;;;18.27;12.87;;;6.80;99.90;;;;;;5012855;28;20253;-78
2021/03/31 05:40:46;;;;;;;15.33;12.50;;;6.70;99.90;;;;;;5012544;28;20241;-77
2021/03/31 05:43:15;;;;;;;16.40;12.83;;;6.70;99.90;;;;;;5013973;28;20287;-78
2021/03/31 05:45:43;;;;;;;17.60;12.67;;;6.70;99.90;;;;;;5011384;28;20233;-77
2021/03/31 05:48:12;;;;;;;16.60;12.47;;;6.70;99.90;;;;;;5028945;28;20764;-77
2021/03/31 05:50:40;;;;;;;15.90;11.40;;;6.70;99.90;;;;;;5013243;28;20876;-78
2021/03/31 05:53:07;;;;;;;18.13;12.63;;;6.70;99.90;;;;;;5013462;28;20295;-77
2021/03/31 05:55:35;;;;;;;17.57;12.03;;;6.80;99.90;;;;;;5013852;28;20237;-77
2021/03/31 05:58:05;;;;;;;16.90;12.50;;;6.90;99.90;;;;;;5013922;28;20291;-78
2021/03/31 06:00:33;;;;;;;22.37;13.77;;;6.90;99.90;;;;;;5012536;28;20233;-78
2021/03/31 06:03:04;;;;;;;18.17;13.00;;;7.00;99.90;;;;;;5012997;28;20233;-77
2021/03/31 06:05:33;;;;;;;19.10;13.70;;;7.20;99.90;;;;;;5013550;28;20237;-78
2021/03/31 06:08:04;;;;;;;15.53;12.37;;;7.20;99.90;;;;;;5028367;28;20243;-78
2021/03/31 06:10:32;;;;;;;20.53;13.67;;;7.30;99.90;;;;;;5008305;28;20315;-76
2021/03/31 06:13:02;;;;;;;16.67;12.37;;;7.40;99.90;;;;;;5009992;28;20257;-77
2021/03/31 06:15:37;;;;;;;16.80;12.40;;;7.50;99.90;;;;;;5005801;28;20229;-76
2021/03/31 06:18:13;;;;;;;21.50;12.70;;;7.60;99.90;;;;;;5013383;28;20697;-78
2021/03/31 06:20:54;;;;;;;18.50;13.03;;;7.70;99.90;;;;;;5013997;28;20311;-78
2021/03/31 06:26:28;;;;;;;17.07;13.37;;;8.10;99.90;;;;;;5000749;28;20241;-77
2021/03/31 06:28:59;;;;;;;16.93;14.03;;;8.30;99.90;;;;;;5007102;28;20641;-78
2021/03/31 06:31:41;;;;;;;20.00;14.07;;;8.40;99.90;;;;;;4955475;28;20252;-76
2021/03/31 06:34:13;;;;;;;21.10;14.03;;;8.70;99.90;;;;;;1005592;28;10002061;-77
2021/03/31 06:36:42;;;;;;;18.30;14.63;;;8.90;99.90;;;;;;5000936;28;20241;-76
2021/03/31 06:39:24;;;;;;;19.43;14.10;;;9.10;99.90;;;;;;5006904;28;20245;-77
2021/03/31 06:41:58;;;;;;;19.03;14.67;;;9.20;99.90;;;;;;5005141;28;20229;-77
2021/03/31 06:44:47;;;;;;;20.03;15.00;;;9.40;99.90;;;;;;5002582;28;20237;-77
2021/03/31 06:47:20;;;;;;;18.20;14.97;;;9.60;99.90;;;;;;4994727;28;20247;-76
2021/03/31 06:49:49;;;;;;;20.93;15.20;;;9.90;99.90;;;;;;4991619;28;20237;-77
2021/03/31 06:52:17;;;;;;;23.07;16.43;;;10.30;99.90;;;;;;4991794;28;20713;-76
2021/03/31 06:54:50;;;;;;;22.57;16.37;;;10.50;99.90;;;;;;4992510;28;20254;-76
2021/03/31 06:57:25;;;;;;;18.23;14.80;;;10.50;99.90;;;;;;4992912;28;20239;-77
2021/03/31 06:59:59;;;;;;;20.17;15.93;;;10.50;99.90;;;;;;4991966;28;20353;-77
2021/03/31 07:02:31;;;;;;;22.13;14.87;;;10.60;99.90;;;;;;5009276;28;20246;-77
2021/03/31 07:04:59;;;;;;;16.40;14.00;;;10.80;99.90;;;;;;5008532;28;20677;-77
2021/03/31 07:07:33;;;;;;;19.10;14.70;;;11.00;99.90;;;;;;5009371;28;20241;-77
2021/03/31 07:10:11;;;;;;;17.63;14.70;;;11.40;99.90;;;;;;5007356;28;20235;-77
2021/03/31 07:12:44;;;;;;;17.87;13.30;;;11.60;99.90;;;;;;5009740;28;20239;-77
2021/03/31 07:15:15;;;;;;;20.33;14.73;;;11.80;99.90;;;;;;5009604;28;20711;-77
2021/03/31 07:17:48;;;;;;;17.20;14.30;;;12.10;99.90;;;;;;5010464;28;20683;-77
2021/03/31 07:20:17;;;;;;;15.60;13.87;;;12.40;99.90;;;;;;5009871;28;20250;-77
2021/03/31 07:22:45;;;;;;;18.53;15.53;;;12.70;99.90;;;;;;5010003;28;20247;-77
2021/03/31 07:25:14;;;;;;;17.37;14.53;;;13.00;99.90;;;;;;5007897;28;20247;-77
2021/03/31 07:27:45;;;;;;;18.67;15.10;;;13.20;99.90;;;;;;4992127;28;20247;-77
2021/03/31 07:30:17;;;;;;;17.67;14.30;;;13.30;99.90;;;;;;4991427;28;20247;-77
2021/03/31 07:33:13;;;;;;;19.23;14.77;;;13.50;99.90;;;;;;4990602;28;20323;-77
2021/03/31 07:35:41;;;;;;;16.97;14.87;;;13.70;99.90;;;;;;4990821;28;20240;-77
2021/03/31 07:38:13;;;;;;;18.90;14.23;;;13.90;99.90;;;;;;4991043;28;20236;-77
2021/03/31 07:40:43;;;;;;;17.40;13.93;;;14.20;99.90;;;;;;4997094;28;20233;-77
2021/03/31 07:43:16;;;;;;;21.80;14.87;;;14.80;99.90;;;;;;5010070;28;20247;-78
2021/03/31 07:45:51;;;;;;;17.47;15.60;;;15.40;99.90;;;;;;5010008;28;20306;-78
2021/03/31 07:48:20;;;;;;;17.70;15.13;;;15.60;99.90;;;;;;5018050;28;20246;-78
2021/03/31 07:50:47;;;;;;;18.90;16.47;;;15.80;99.90;;;;;;4990716;28;20238;-77
2021/03/31 07:53:16;;;;;;;18.80;14.93;;;15.90;99.90;;;;;;4991220;28;20249;-78
2021/03/31 07:55:47;;;;;;;19.37;15.43;;;16.00;99.90;;;;;;5023307;28;20811;-78
2021/03/31 07:58:28;;;;;;;19.47;15.57;;;16.30;99.90;;;;;;5010408;28;20295;-78
2021/03/31 08:01:06;;;;;;;20.73;16.17;;;16.50;99.90;;;;;;5008602;28;20288;-78
2021/03/31 08:03:37;;;;;;;17.93;15.43;;;16.50;99.90;;;;;;5002518;28;20240;-78
2021/03/31 08:06:21;;;;;;;19.30;16.20;;;16.70;99.90;;;;;;5005129;28;20233;-78
2021/03/31 08:09:04;;;;;;;19.43;15.13;;;16.70;99.90;;;;;;5003440;28;20319;-77
2021/03/31 08:12:00;;;;;;;20.03;16.17;;;17.10;99.90;;;;;;5009119;28;20240;-78
2021/03/31 08:14:45;;;;;;;19.20;15.03;;;17.40;99.90;;;;;;5000233;28;20237;-78
2021/03/31 08:17:33;;;;;;;20.67;15.53;;;17.60;99.90;;;;;;4989927;28;20329;-78
2021/03/31 08:20:03;;;;;;;17.17;14.83;;;17.70;99.90;;;;;;4988562;28;20276;-78
2021/03/31 08:22:39;;;;;;;26.17;16.37;;;17.90;99.90;;;;;;4989640;28;20325;-78
2021/03/31 08:25:23;;;;;;;18.50;15.07;;;18.10;99.90;;;;;;5005148;28;20340;-78
2021/03/31 08:28:06;;;;;;;18.07;14.80;;;18.20;99.90;;;;;;4992138;28;20245;-78
2021/03/31 08:30:37;;;;;;;20.20;15.27;;;18.30;99.90;;;;;;4989366;28;20336;-79
2021/03/31 08:33:07;;;;;;;20.30;14.90;;;18.40;99.90;;;;;;4989679;28;20231;-78
2021/03/31 08:35:36;;;;;;;19.03;14.93;;;18.50;99.90;;;;;;4988998;28;20234;-79
2021/03/31 08:38:20;;;;;;;18.67;14.90;;;18.90;99.90;;;;;;4996145;28;20241;-78
2021/03/31 08:40:47;;;;;;;18.53;15.03;;;19.20;99.90;;;;;;4998202;28;20243;-78
2021/03/31 08:43:19;;;;;;;21.33;15.23;;;19.20;99.90;;;;;;4996416;28;20243;-78
2021/03/31 08:45:52;;;;;;;18.77;14.57;;;19.10;99.90;;;;;;4998380;28;20882;-78
2021/03/31 08:48:37;;;;;;;18.43;14.27;;;19.40;99.90;;;;;;5001788;28;20234;-79
2021/03/31 08:51:13;;;;;;;21.40;14.83;;;19.80;99.90;;;;;;4976974;28;20240;-79
2021/03/31 08:53:41;;;;;;;18.87;15.03;;;20.10;99.90;;;;;;4990790;28;20249;-78
2021/03/31 08:56:17;;;;;;;18.70;14.70;;;20.20;99.90;;;;;;4992524;28;20244;-78
2021/03/31 08:58:51;;;;;;;17.67;14.07;;;20.40;99.90;;;;;;5006345;28;20238;-78
2021/03/31 09:01:28;;;;;;;20.70;13.70;;;20.50;99.80;;;;;;5010713;28;20362;-78
2021/03/31 09:04:16;;;;;;;18.37;15.37;;;20.70;99.90;;;;;;5012670;28;20832;-78
2021/03/31 09:06:44;;;;;;;16.63;13.17;;;20.70;99.20;;;;;;5006814;28;20626;-78
2021/03/31 09:09:13;;;;;;;17.70;13.47;;;20.90;99.90;;;;;;5009405;28;20244;-78
2021/03/31 09:11:41;;;;;;;19.60;14.13;;;21.20;98.60;;;;;;5028057;28;20232;-79
2021/03/31 09:14:20;;;;;;;18.77;13.53;;;21.40;97.30;;;;;;5012632;28;20626;-79
2021/03/31 09:16:53;;;;;;;16.43;13.80;;;21.60;97.90;;;;;;5004960;28;20241;-79
2021/03/31 09:19:29;;;;;;;17.57;13.37;;;21.70;96.90;;;;;;5012502;28;20877;-79
2021/03/31 09:22:04;;;;;;;22.00;14.93;;;21.80;96.90;;;;;;5012302;28;20233;-79
2021/03/31 09:24:33;;;;;;;19.97;14.30;;;22.00;94.30;;;;;;4993064;28;20244;-79
2021/03/31 09:27:05;;;;;;;16.60;13.03;;;22.20;96.60;;;;;;4992845;28;20292;-79
2021/03/31 09:29:35;;;;;;;19.77;15.27;;;22.50;97.10;;;;;;4998078;28;20236;-79
2021/03/31 09:32:05;;;;;;;19.20;13.33;;;22.70;96.00;;;;;;5004804;28;21470;-79
2021/03/31 09:34:35;;;;;;;19.57;14.57;;;22.90;96.50;;;;;;5002593;28;20929;-79
2021/03/31 09:37:08;;;;;;;16.87;12.60;;;23.00;93.40;;;;;;5003574;28;20263;-79
2021/03/31 09:39:46;;;;;;;17.70;12.80;;;23.00;95.00;;;;;;5003046;28;20237;-79
2021/03/31 09:42:21;;;;;;;17.00;13.37;;;23.10;93.20;;;;;;4989779;28;20717;-79
2021/03/31 09:44:51;;;;;;;19.03;13.70;;;23.40;95.40;;;;;;5012652;28;20260;-79
2021/03/31 09:47:21;;;;;;;19.00;13.57;;;23.50;95.10;;;;;;5010022;28;20256;-79
2021/03/31 09:49:50;;;;;;;18.23;14.47;;;23.70;94.50;;;;;;5008556;28;21078;-79
2021/03/31 09:52:24;;;;;;;17.43;13.83;;;23.80;93.90;;;;;;5009967;28;20605;-79
2021/03/31 09:54:53;;;;;;;18.40;13.53;;;23.90;93.00;;;;;;5014726;28;20248;-79
2021/03/31 09:57:25;;;;;;;18.80;14.17;;;23.90;92.80;;;;;;5008649;28;20245;-79
2021/03/31 09:59:53;;;;;;;20.03;14.53;;;24.00;93.50;;;;;;5009135;28;20253;-79
2021/03/31 10:02:22;;;;;;;18.60;13.17;;;24.10;92.60;;;;;;5011877;28;20291;-80
2021/03/31 10:04:51;;;;;;;15.83;12.83;;;24.20;93.30;;;;;;5007791;28;20283;-80
2021/03/31 10:07:21;;;;;;;18.60;13.97;;;24.40;93.10;;;;;;5005483;28;20259;-80
2021/03/31 10:10:10;;;;;;;18.10;13.00;;;24.60;91.80;;;;;;5012382;28;20256;-79
2021/03/31 10:12:38;;;;;;;18.00;13.33;;;24.80;91.50;;;;;;5009248;28;20253;-79
2021/03/31 10:15:13;;;;;;;15.77;13.47;;;25.00;92.20;;;;;;5005581;28;20300;-80
2021/03/31 10:17:41;;;;;;;20.90;13.77;;;25.20;91.30;;;;;;5008590;28;20336;-80
2021/03/31 10:20:13;;;;;;;15.70;12.80;;;25.10;90.40;;;;;;5005053;28;20242;-80
2021/03/31 10:22:42;;;;;;;17.53;13.20;;;25.20;90.30;;;;;;5003777;28;20250;-80
2021/03/31 10:25:26;;;;;;;17.33;12.60;;;25.40;90.20;;;;;;5010533;28;20230;-79
2021/03/31 10:28:35;;;;;;;15.73;13.70;;;25.50;89.80;;;;;;5008515;28;20241;-80
2021/03/31 10:31:29;;;;;;;19.47;14.27;;;25.60;87.00;;;;;;5012411;28;20249;-80
2021/03/31 10:34:15;;;;;;;17.03;13.23;;;25.60;84.50;;;;;;5011303;28;20250;-80
2021/03/31 10:36:56;;;;;;;18.87;13.73;;;25.60;85.70;;;;;;5010481;28;20251;-80
2021/03/31 10:48:13;;;;;;;16.70;13.40;;;26.20;84.50;;;;;;5017322;28;21019;-80
2021/03/31 10:50:46;;;;;;;19.03;13.93;;;26.20;85.10;;;;;;5017269;28;20340;-80
2021/03/31 10:53:14;;;;;;;18.03;13.83;;;26.20;81.60;;;;;;5010820;28;20243;-80
2021/03/31 10:55:43;;;;;;;17.63;13.67;;;26.50;78.20;;;;;;5006878;28;20239;-80
2021/03/31 10:58:12;;;;;;;19.60;15.10;;;26.50;78.50;;;;;;5003754;28;20254;-80
2021/03/31 11:00:40;;;;;;;17.60;12.60;;;26.50;75.70;;;;;;5006790;28;20268;-80
2021/03/31 11:03:21;;;;;;;19.60;14.27;;;26.50;79.70;;;;;;5009595;28;20337;-80
2021/03/31 11:05:53;;;;;;;18.27;14.73;;;26.70;77.50;;;;;;5011608;28;20239;-80
2021/03/31 11:08:22;;;;;;;23.63;13.97;;;26.70;73.60;;;;;;5011491;28;20602;-80
2021/03/31 11:10:51;;;;;;;17.90;12.93;;;26.70;77.70;;;;;;5010275;28;20312;-80
2021/03/31 11:13:19;;;;;;;18.43;13.93;;;26.90;77.70;;;;;;5012644;28;20321;-80
2021/03/31 11:15:47;;;;;;;22.07;14.53;;;26.80;73.30;;;;;;5012473;28;20301;-80
2021/03/31 11:18:23;;;;;;;18.20;13.60;;;26.90;75.40;;;;;;5007797;28;20260;-80
2021/03/31 11:26:23;;;;;;;16.73;12.97;;;26.80;72.40;;;;;;5006248;28;20252;-81
2021/03/31 11:28:53;;;;;;;17.40;12.23;;;26.80;72.70;;;;;;5009880;28;20268;-81
2021/03/31 11:31:21;;;;;;;16.77;13.30;;;26.80;71.40;;;;;;5014968;28;20335;-80
2021/03/31 11:33:50;;;;;;;17.80;13.00;;;26.90;72.50;;;;;;5010899;28;20275;-80
2021/03/31 11:36:18;;;;;;;19.30;13.13;;;26.80;70.00;;;;;;5011040;28;20252;-80
2021/03/31 11:38:47;;;;;;;14.13;11.87;;;26.60;65.60;;;;;;5008225;28;20239;-80
2021/03/31 11:41:15;;;;;;;16.57;12.43;;;26.80;71.80;;;;;;5007477;28;20247;-80
2021/03/31 11:43:43;;;;;;;18.37;13.77;;;27.00;70.80;;;;;;5011130;28;20237;-80
2021/03/31 11:46:10;;;;;;;17.40;12.57;;;27.10;68.00;;;;;;5011257;28;20718;-80
2021/03/31 11:48:40;;;;;;;18.03;13.47;;;27.20;70.60;;;;;;5012640;28;20248;-80
2021/03/31 11:51:08;;;;;;;16.67;13.67;;;27.10;67.70;;;;;;5016338;28;20239;-80
2021/03/31 11:53:35;;;;;;;16.13;13.00;;;26.90;72.00;;;;;;5015717;28;20236;-80
2021/03/31 11:56:05;;;;;;;15.70;12.87;;;27.00;74.70;;;;;;5012189;28;20685;-80
2021/03/31 11:58:32;;;;;;;15.47;12.30;;;27.00;73.90;;;;;;5013176;28;20288;-80
2021/03/31 12:01:00;;;;;;;17.03;12.87;;;27.00;73.70;;;;;;5008514;28;20233;-80
2021/03/31 12:03:29;;;;;;;18.00;13.27;;;26.70;74.60;;;;;;5015174;28;20244;-80
2021/03/31 12:05:57;;;;;;;19.43;13.37;;;26.50;75.00;;;;;;5015945;28;20293;-80
2021/03/31 12:08:25;;;;;;;16.93;13.23;;;26.40;75.70;;;;;;5017312;28;20275;-80
2021/03/31 12:10:55;;;;;;;18.50;14.20;;;26.30;70.70;;;;;;5006771;28;20242;-80
2021/03/31 12:13:22;;;;;;;18.67;13.07;;;26.20;70.70;;;;;;5013915;28;20327;-80
2021/03/31 12:15:50;;;;;;;18.07;13.20;;;26.20;75.80;;;;;;5003908;28;20241;-80
2021/03/31 12:18:18;;;;;;;18.23;13.37;;;26.20;73.20;;;;;;5013419;28;20250;-79
2021/03/31 12:20:46;;;;;;;20.03;13.97;;;26.00;76.20;;;;;;5010380;28;20264;-80
2021/03/31 12:23:14;;;;;;;19.23;13.83;;;25.90;71.80;;;;;;5015553;28;20244;-79
2021/03/31 12:25:44;;;;;;;18.97;13.53;;;25.80;73.40;;;;;;5027600;28;20294;-80
2021/03/31 12:28:11;;;;;;;19.57;14.60;;;25.50;67.20;;;;;;5036821;28;20721;-79
2021/03/31 12:30:39;;;;;;;18.83;14.90;;;25.20;69.80;;;;;;5023662;28;20240;-79
2021/03/31 12:33:06;;;;;;;19.43;13.67;;;25.10;71.90;;;;;;5019428;28;20239;-79
2021/03/31 12:35:36;;;;;;;21.10;15.33;;;25.20;74.90;;;;;;5016183;28;20289;-80
2021/03/31 12:38:07;;;;;;;20.90;14.47;;;25.30;73.10;;;;;;5015281;28;20235;-79
2021/03/31 12:40:39;;;;;;;21.23;13.80;;;25.30;76.40;;;;;;5007503;28;20240;-79
2021/03/31 12:43:08;;;;;;;24.53;16.00;;;25.30;76.60;;;;;;5003747;28;20804;-79
2021/03/31 12:45:36;;;;;;;20.50;15.20;;;25.40;72.30;;;;;;5012870;28;20318;-80
2021/03/31 12:48:06;;;;;;;23.63;16.20;;;25.30;73.70;;;;;;5014760;28;20580;-79
2021/03/31 12:50:36;;;;;;;24.00;15.90;;;25.00;71.00;;;;;;5004077;28;20236;-79
2021/03/31 12:53:18;;;;;;;19.77;14.90;;;25.00;72.50;;;;;;5012160;28;20699;-79
2021/03/31 12:55:49;;;;;;;21.23;16.13;;;25.00;76.90;;;;;;5014897;28;20240;-79
2021/03/31 12:58:23;;;;;;;19.33;15.80;;;24.70;73.00;;;;;;5015800;28;20243;-79
2021/03/31 13:00:59;;;;;;;21.63;16.03;;;24.80;75.50;;;;;;5015091;28;20241;-79
2021/03/31 13:03:47;;;;;;;22.47;16.87;;;24.60;75.80;;;;;;5014607;28;20246;-79
2021/03/31 13:06:17;;;;;;;21.50;15.33;;;24.70;77.20;;;;;;5015172;28;20266;-80
2021/03/31 13:08:50;;;;;;;22.20;16.17;;;24.60;77.30;;;;;;5015678;28;21220;-79
2021/03/31 13:11:39;;;;;;;25.30;16.57;;;24.70;76.20;;;;;;5018964;28;20394;-79
2021/03/31 13:14:42;;;;;;;22.43;16.97;;;24.50;73.90;;;;;;5015553;28;20772;-79